sensor_id;sensor_type;location;lat;lon;timestamp;pressure;altitude;pressure_sealevel;temperature;humidity
48517;BME280;34310;51.904;4.256;2022-10-15T00:01:11;100806.22;;;17.19;69.19
48517;BME280;34310;51.904;4.256;2022-10-15T00:03:40;100807.94;;;17.19;69.15
48517;BME280;34310;51.904;4.256;2022-10-15T00:06:16;100814.09;;;17.21;69.03
48517;BME280;34310;51.904;4.256;2022-10-15T00:08:45;100808.81;;;17.19;69.19
48517;BME280;34310;51.904;4.256;2022-10-15T00:11:15;100804.44;;;17.18;69.18
48517;BME280;34310;51.904;4.256;2022-10-15T00:13:43;100809.66;;;17.18;69.04
48517;BME280;34310;51.904;4.256;2022-10-15T00:16:16;100804.38;;;17.17;69.02
48517;BME280;34310;51.904;4.256;2022-10-15T00:18:44;100818.31;;;17.17;69.01
48517;BME280;34310;51.904;4.256;2022-10-15T00:21:14;100812.19;;;17.17;69.10
48517;BME280;34310;51.904;4.256;2022-10-15T00:23:42;100810.41;;;17.16;69.14
48517;BME280;34310;51.904;4.256;2022-10-15T00:26:18;100810.47;;;17.17;69.15
48517;BME280;34310;51.904;4.256;2022-10-15T00:28:46;100802.59;;;17.16;69.14
48517;BME280;34310;51.904;4.256;2022-10-15T00:31:17;100803.47;;;17.16;69.11
48517;BME280;34310;51.904;4.256;2022-10-15T00:33:51;100803.47;;;17.16;69.21
48517;BME280;34310;51.904;4.256;2022-10-15T00:36:23;100796.47;;;17.15;69.11
48517;BME280;34310;51.904;4.256;2022-10-15T00:38:52;100795.59;;;17.15;69.08
48517;BME280;34310;51.904;4.256;2022-10-15T00:41:22;100802.53;;;17.14;69.11
48517;BME280;34310;51.904;4.256;2022-10-15T00:43:52;100796.47;;;17.15;69.15
48517;BME280;34310;51.904;4.256;2022-10-15T00:46:29;100797.31;;;17.14;69.13
48517;BME280;34310;51.904;4.256;2022-10-15T00:49:36;100791.25;;;17.15;69.23
48517;BME280;34310;51.904;4.256;2022-10-15T00:53:08;100793.94;;;17.17;69.28
48517;BME280;34310;51.904;4.256;2022-10-15T00:57:40;100793.78;;;17.14;69.31
48517;BME280;34310;51.904;4.256;2022-10-15T01:00:12;100785.97;;;17.14;69.33
48517;BME280;34310;51.904;4.256;2022-10-15T01:02:42;100781.66;;;17.14;69.50
48517;BME280;34310;51.904;4.256;2022-10-15T01:05:12;100782.47;;;17.13;69.48
48517;BME280;34310;51.904;4.256;2022-10-15T01:07:41;100780.75;;;17.14;69.30
48517;BME280;34310;51.904;4.256;2022-10-15T01:10:09;100774.66;;;17.13;69.29
48517;BME280;34310;51.904;4.256;2022-10-15T01:13:06;100775.47;;;17.12;69.00
48517;BME280;34310;51.904;4.256;2022-10-15T01:15:50;100767.59;;;17.11;69.09
48517;BME280;34310;51.904;4.256;2022-10-15T01:19:14;100765.88;;;17.11;69.34
48517;BME280;34310;51.904;4.256;2022-10-15T01:21:58;100764.97;;;17.11;69.09
48517;BME280;34310;51.904;4.256;2022-10-15T01:33:19;100757.97;;;17.10;69.13
48517;BME280;34310;51.904;4.256;2022-10-15T01:36:10;100756.25;;;17.10;69.38
48517;BME280;34310;51.904;4.256;2022-10-15T01:39:08;100758.88;;;17.10;69.43
48517;BME280;34310;51.904;4.256;2022-10-15T01:41:48;100765.81;;;17.10;69.42
48517;BME280;34310;51.904;4.256;2022-10-15T01:44:25;100766.69;;;17.10;69.27
48517;BME280;34310;51.904;4.256;2022-10-15T01:47:04;100770.13;;;17.09;69.53
48517;BME280;34310;51.904;4.256;2022-10-15T01:49:36;100765.72;;;17.08;69.27
48517;BME280;34310;51.904;4.256;2022-10-15T01:52:09;100761.41;;;17.09;69.45
48517;BME280;34310;51.904;4.256;2022-10-15T01:54:39;100757.09;;;17.09;69.49
48517;BME280;34310;51.904;4.256;2022-10-15T01:57:07;100750.09;;;17.08;69.41
48517;BME280;34310;51.904;4.256;2022-10-15T01:59:37;100743.97;;;17.08;69.34
48517;BME280;34310;51.904;4.256;2022-10-15T02:02:04;100751.81;;;17.08;69.36
48517;BME280;34310;51.904;4.256;2022-10-15T02:04:32;100732.66;;;17.07;69.36
48517;BME280;34310;51.904;4.256;2022-10-15T02:17:17;100728.31;;;17.08;69.46
48517;BME280;34310;51.904;4.256;2022-10-15T02:19:52;100709.06;;;17.06;69.52
48517;BME280;34310;51.904;4.256;2022-10-15T02:22:33;100707.41;;;17.06;69.56
48517;BME280;34310;51.904;4.256;2022-10-15T02:25:18;100705.56;;;17.05;69.28
48517;BME280;34310;51.904;4.256;2022-10-15T02:27:48;100702.91;;;17.03;69.21
48517;BME280;34310;51.904;4.256;2022-10-15T02:30:18;100700.38;;;17.05;69.45
48517;BME280;34310;51.904;4.256;2022-10-15T02:32:49;100699.41;;;17.03;69.47
48517;BME280;34310;51.904;4.256;2022-10-15T02:35:18;100699.47;;;17.04;69.42
48517;BME280;34310;51.904;4.256;2022-10-15T02:37:49;100695.97;;;17.04;69.35
48517;BME280;34310;51.904;4.256;2022-10-15T02:40:18;100683.75;;;17.03;69.32
48517;BME280;34310;51.904;4.256;2022-10-15T02:42:45;100695.91;;;17.02;69.48
48517;BME280;34310;51.904;4.256;2022-10-15T02:45:13;100690.69;;;17.02;69.48
48517;BME280;34310;51.904;4.256;2022-10-15T02:47:40;100692.28;;;16.99;69.27
48517;BME280;34310;51.904;4.256;2022-10-15T02:50:07;100688.84;;;17.00;69.43
48517;BME280;34310;51.904;4.256;2022-10-15T02:52:35;100688.84;;;17.00;69.23
48517;BME280;34310;51.904;4.256;2022-10-15T02:55:02;100685.28;;;16.98;69.40
48517;BME280;34310;51.904;4.256;2022-10-15T02:57:30;100686.25;;;17.00;69.44
48517;BME280;34310;51.904;4.256;2022-10-15T02:59:57;100682.81;;;17.01;69.42
48517;BME280;34310;51.904;4.256;2022-10-15T03:02:24;100673.19;;;17.00;69.22
48517;BME280;34310;51.904;4.256;2022-10-15T03:04:51;100668.81;;;16.99;69.68
48517;BME280;34310;51.904;4.256;2022-10-15T03:07:18;100668.75;;;16.97;69.37
48517;BME280;34310;51.904;4.256;2022-10-15T03:09:46;100666.19;;;16.99;69.46
48517;BME280;34310;51.904;4.256;2022-10-15T03:12:13;100672.31;;;16.99;69.61
48517;BME280;34310;51.904;4.256;2022-10-15T03:14:40;100672.25;;;16.98;69.44
48517;BME280;34310;51.904;4.256;2022-10-15T03:17:08;100666.06;;;16.96;69.37
48517;BME280;34310;51.904;4.256;2022-10-15T03:19:35;100674.72;;;16.95;69.26
48517;BME280;34310;51.904;4.256;2022-10-15T03:22:02;100672.13;;;16.95;69.27
48517;BME280;34310;51.904;4.256;2022-10-15T03:24:29;100672.13;;;16.95;69.47
48517;BME280;34310;51.904;4.256;2022-10-15T03:26:56;100674.72;;;16.95;69.40
48517;BME280;34310;51.904;4.256;2022-10-15T03:29:24;100670.41;;;16.95;69.39
48517;BME280;34310;51.904;4.256;2022-10-15T03:31:51;100679.94;;;16.95;69.52
48517;BME280;34310;51.904;4.256;2022-10-15T03:34:18;100675.63;;;16.95;69.57
48517;BME280;34310;51.904;4.256;2022-10-15T03:36:46;100677.28;;;16.93;69.53
48517;BME280;34310;51.904;4.256;2022-10-15T03:39:13;100690.38;;;16.95;69.59
48517;BME280;34310;51.904;4.256;2022-10-15T03:41:40;100689.47;;;16.94;69.62
48517;BME280;34310;51.904;4.256;2022-10-15T03:44:09;100692.09;;;16.94;69.59
48517;BME280;34310;51.904;4.256;2022-10-15T03:46:36;100686.00;;;16.94;69.62
48517;BME280;34310;51.904;4.256;2022-10-15T03:49:03;100688.59;;;16.94;69.62
48517;BME280;34310;51.904;4.256;2022-10-15T03:51:31;100690.38;;;16.95;69.31
48517;BME280;34310;51.904;4.256;2022-10-15T03:53:58;100696.47;;;16.95;69.77
48517;BME280;34310;51.904;4.256;2022-10-15T03:56:25;100693.81;;;16.94;69.54
48517;BME280;34310;51.904;4.256;2022-10-15T03:58:52;100698.13;;;16.93;69.50
48517;BME280;34310;51.904;4.256;2022-10-15T04:01:20;100689.34;;;16.91;69.60
48517;BME280;34310;51.904;4.256;2022-10-15T04:03:50;100692.91;;;16.93;69.63
48517;BME280;34310;51.904;4.256;2022-10-15T04:06:17;100690.25;;;16.92;69.61
48517;BME280;34310;51.904;4.256;2022-10-15T04:08:45;100687.69;;;16.93;69.71
48517;BME280;34310;51.904;4.256;2022-10-15T04:11:12;100677.28;;;16.93;69.77
48517;BME280;34310;51.904;4.256;2022-10-15T04:13:39;100682.56;;;16.95;69.51
48517;BME280;34310;51.904;4.256;2022-10-15T04:16:07;100686.06;;;16.95;69.79
48517;BME280;34310;51.904;4.256;2022-10-15T04:18:34;100679.88;;;16.93;69.44
48517;BME280;34310;51.904;4.256;2022-10-15T04:21:01;100685.09;;;16.93;69.47
48517;BME280;34310;51.904;4.256;2022-10-15T04:23:29;100678.16;;;16.94;69.77
48517;BME280;34310;51.904;4.256;2022-10-15T04:25:58;100671.94;;;16.90;69.34
48517;BME280;34310;51.904;4.256;2022-10-15T04:28:27;100675.44;;;16.91;69.40
48517;BME280;34310;51.904;4.256;2022-10-15T04:31:01;100671.94;;;16.90;69.52
48517;BME280;34310;51.904;4.256;2022-10-15T04:33:28;100672.94;;;16.94;69.67
48517;BME280;34310;51.904;4.256;2022-10-15T04:36:04;100670.34;;;16.94;69.49
48517;BME280;34310;51.904;4.256;2022-10-15T04:38:31;100670.28;;;16.92;69.69
48517;BME280;34310;51.904;4.256;2022-10-15T04:41:07;100661.56;;;16.92;69.54
48517;BME280;34310;51.904;4.256;2022-10-15T04:43:36;100663.28;;;16.91;69.61
48517;BME280;34310;51.904;4.256;2022-10-15T04:46:06;100653.69;;;16.90;69.79
48517;BME280;34310;51.904;4.256;2022-10-15T04:48:35;100654.50;;;16.89;69.63
48517;BME280;34310;51.904;4.256;2022-10-15T04:51:13;100656.34;;;16.92;69.67
48517;BME280;34310;51.904;4.256;2022-10-15T04:53:41;100654.56;;;16.91;69.85
48517;BME280;34310;51.904;4.256;2022-10-15T04:56:17;100656.28;;;16.90;69.73
48517;BME280;34310;51.904;4.256;2022-10-15T04:58:46;100647.63;;;16.91;69.78
48517;BME280;34310;51.904;4.256;2022-10-15T05:01:18;100645.84;;;16.90;69.56
48517;BME280;34310;51.904;4.256;2022-10-15T05:03:47;100640.63;;;16.90;69.48
48517;BME280;34310;51.904;4.256;2022-10-15T05:06:17;100641.53;;;16.91;69.75
48517;BME280;34310;51.904;4.256;2022-10-15T05:08:45;100646.75;;;16.91;69.77
48517;BME280;34310;51.904;4.256;2022-10-15T05:11:16;100647.56;;;16.90;69.51
48517;BME280;34310;51.904;4.256;2022-10-15T05:13:44;100644.06;;;16.89;69.75
48517;BME280;34310;51.904;4.256;2022-10-15T05:16:14;100645.78;;;16.89;69.85
48517;BME280;34310;51.904;4.256;2022-10-15T05:18:43;100644.06;;;16.89;69.67
48517;BME280;34310;51.904;4.256;2022-10-15T05:21:11;100637.97;;;16.89;69.60
48517;BME280;34310;51.904;4.256;2022-10-15T05:23:39;100636.19;;;16.88;69.72
48517;BME280;34310;51.904;4.256;2022-10-15T05:26:09;100631.91;;;16.90;69.72
48517;BME280;34310;51.904;4.256;2022-10-15T05:28:37;100624.09;;;16.90;69.57
48517;BME280;34310;51.904;4.256;2022-10-15T05:31:12;100630.16;;;16.89;69.64
48517;BME280;34310;51.904;4.256;2022-10-15T05:33:49;100633.56;;;16.88;69.68
48517;BME280;34310;51.904;4.256;2022-10-15T05:36:18;100628.38;;;16.88;69.74
48517;BME280;34310;51.904;4.256;2022-10-15T05:38:51;100632.81;;;16.90;69.71
48517;BME280;34310;51.904;4.256;2022-10-15T05:41:19;100631.88;;;16.88;69.75
48517;BME280;34310;51.904;4.256;2022-10-15T05:43:48;100638.78;;;16.88;69.66
48517;BME280;34310;51.904;4.256;2022-10-15T05:46:16;100636.19;;;16.88;69.83
48517;BME280;34310;51.904;4.256;2022-10-15T05:48:47;100638.78;;;16.88;69.69
48517;BME280;34310;51.904;4.256;2022-10-15T05:51:15;100633.50;;;16.86;69.54
48517;BME280;34310;51.904;4.256;2022-10-15T05:53:42;100636.13;;;16.86;69.65
48517;BME280;34310;51.904;4.256;2022-10-15T05:56:13;100636.13;;;16.86;69.66
48517;BME280;34310;51.904;4.256;2022-10-15T05:58:40;100637.91;;;16.87;69.77
48517;BME280;34310;51.904;4.256;2022-10-15T06:01:10;100641.41;;;16.88;69.96
48517;BME280;34310;51.904;4.256;2022-10-15T06:03:38;100632.63;;;16.86;69.62
48517;BME280;34310;51.904;4.256;2022-10-15T06:06:14;100636.13;;;16.86;69.52
48517;BME280;34310;51.904;4.256;2022-10-15T06:08:42;100618.69;;;16.85;69.59
48517;BME280;34310;51.904;4.256;2022-10-15T06:11:10;100632.63;;;16.86;69.76
48517;BME280;34310;51.904;4.256;2022-10-15T06:13:39;100631.72;;;16.85;69.68
48517;BME280;34310;51.904;4.256;2022-10-15T06:16:08;100621.31;;;16.85;69.46
48517;BME280;34310;51.904;4.256;2022-10-15T06:18:36;100628.25;;;16.85;69.69
48517;BME280;34310;51.904;4.256;2022-10-15T06:21:06;100630.84;;;16.85;69.58
48517;BME280;34310;51.904;4.256;2022-10-15T06:23:33;100624.81;;;16.86;69.82
48517;BME280;34310;51.904;4.256;2022-10-15T06:26:03;100629.19;;;16.87;69.68
48517;BME280;34310;51.904;4.256;2022-10-15T06:28:31;100614.38;;;16.86;69.87
48517;BME280;34310;51.904;4.256;2022-10-15T06:30:59;100620.53;;;16.88;69.73
48517;BME280;34310;51.904;4.256;2022-10-15T06:33:27;100617.81;;;16.85;69.79
48517;BME280;34310;51.904;4.256;2022-10-15T06:35:59;100616.97;;;16.86;69.62
48517;BME280;34310;51.904;4.256;2022-10-15T06:38:26;100623.97;;;16.87;69.73
48517;BME280;34310;51.904;4.256;2022-10-15T06:40:54;100616.16;;;16.87;69.83
48517;BME280;34310;51.904;4.256;2022-10-15T06:43:21;100616.97;;;16.86;69.67
48517;BME280;34310;51.904;4.256;2022-10-15T06:45:49;100621.38;;;16.87;69.67
48517;BME280;34310;51.904;4.256;2022-10-15T06:48:17;100620.47;;;16.86;69.77
48517;BME280;34310;51.904;4.256;2022-10-15T06:50:44;100619.59;;;16.86;69.76
48517;BME280;34310;51.904;4.256;2022-10-15T06:53:12;100617.81;;;16.85;69.44
48517;BME280;34310;51.904;4.256;2022-10-15T06:55:39;100620.47;;;16.86;69.69
48517;BME280;34310;51.904;4.256;2022-10-15T06:58:06;100621.38;;;16.87;69.85
48517;BME280;34310;51.904;4.256;2022-10-15T07:00:33;100616.16;;;16.87;69.73
48517;BME280;34310;51.904;4.256;2022-10-15T07:03:07;100617.88;;;16.86;69.65
48517;BME280;34310;51.904;4.256;2022-10-15T07:05:34;100624.88;;;16.87;69.53
48517;BME280;34310;51.904;4.256;2022-10-15T07:08:02;100623.09;;;16.86;69.75
48517;BME280;34310;51.904;4.256;2022-10-15T07:10:29;100613.53;;;16.87;69.69
48517;BME280;34310;51.904;4.256;2022-10-15T07:12:59;100623.16;;;16.88;69.67
48517;BME280;34310;51.904;4.256;2022-10-15T07:15:27;100614.44;;;16.87;69.58
48517;BME280;34310;51.904;4.256;2022-10-15T07:17:56;100620.53;;;16.88;69.56
48517;BME280;34310;51.904;4.256;2022-10-15T07:20:30;100609.28;;;16.89;69.68
48517;BME280;34310;51.904;4.256;2022-10-15T07:22:58;100609.28;;;16.89;69.88
48517;BME280;34310;51.904;4.256;2022-10-15T07:25:27;100608.47;;;16.90;69.54
48517;BME280;34310;51.904;4.256;2022-10-15T07:27:55;100604.97;;;16.89;69.67
48517;BME280;34310;51.904;4.256;2022-10-15T07:30:24;100606.75;;;16.90;69.83
48517;BME280;34310;51.904;4.256;2022-10-15T07:32:56;100604.97;;;16.89;69.63
48517;BME280;34310;51.904;4.256;2022-10-15T07:35:25;100605.03;;;16.91;69.72
48517;BME280;34310;51.904;4.256;2022-10-15T07:37:52;100599.81;;;16.91;69.62
48517;BME280;34310;51.904;4.256;2022-10-15T07:40:20;100598.84;;;16.89;69.44
48517;BME280;34310;51.904;4.256;2022-10-15T07:42:55;100594.47;;;16.88;69.76
48517;BME280;34310;51.904;4.256;2022-10-15T07:45:24;100593.63;;;16.89;69.57
48517;BME280;34310;51.904;4.256;2022-10-15T07:47:52;100587.59;;;16.90;69.47
48517;BME280;34310;51.904;4.256;2022-10-15T07:50:20;100584.16;;;16.91;69.56
48517;BME280;34310;51.904;4.256;2022-10-15T07:52:47;100589.38;;;16.91;69.52
48517;BME280;34310;51.904;4.256;2022-10-15T07:55:15;100586.81;;;16.92;69.63
48517;BME280;34310;51.904;4.256;2022-10-15T07:57:42;100584.22;;;16.92;69.58
48517;BME280;34310;51.904;4.256;2022-10-15T08:00:10;100581.66;;;16.94;69.45
48517;BME280;34310;51.904;4.256;2022-10-15T08:02:38;100575.63;;;16.95;69.47
48517;BME280;34310;51.904;4.256;2022-10-15T08:05:06;100573.97;;;16.97;69.68
48517;BME280;34310;51.904;4.256;2022-10-15T08:07:33;100570.53;;;16.98;69.49
48517;BME280;34310;51.904;4.256;2022-10-15T08:10:00;100569.69;;;16.99;69.64
48517;BME280;34310;51.904;4.256;2022-10-15T08:12:28;100566.25;;;17.00;69.67
48517;BME280;34310;51.904;4.256;2022-10-15T08:14:55;100575.88;;;17.01;69.63
48517;BME280;34310;51.904;4.256;2022-10-15T08:17:22;100568.88;;;17.00;69.58
48517;BME280;34310;51.904;4.256;2022-10-15T08:19:49;100576.75;;;17.01;69.81
48517;BME280;34310;51.904;4.256;2022-10-15T08:22:17;100558.50;;;17.01;69.58
48517;BME280;34310;51.904;4.256;2022-10-15T08:24:44;100563.72;;;17.01;69.58
48517;BME280;34310;51.904;4.256;2022-10-15T08:27:11;100561.94;;;17.00;69.57
48517;BME280;34310;51.904;4.256;2022-10-15T08:29:38;100557.69;;;17.02;69.67
48517;BME280;34310;51.904;4.256;2022-10-15T08:32:05;100567.28;;;17.03;69.73
48517;BME280;34310;51.904;4.256;2022-10-15T08:34:33;100571.66;;;17.04;69.60
48517;BME280;34310;51.904;4.256;2022-10-15T08:37:02;100572.56;;;17.05;69.64
48517;BME280;34310;51.904;4.256;2022-10-15T08:39:29;100566.44;;;17.04;69.80
48517;BME280;34310;51.904;4.256;2022-10-15T08:42:00;100582.09;;;17.04;69.68
48517;BME280;34310;51.904;4.256;2022-10-15T08:44:32;100587.31;;;17.04;69.68
48517;BME280;34310;51.904;4.256;2022-10-15T08:49:54;100571.66;;;17.04;69.91
48517;BME280;34310;51.904;4.256;2022-10-15T08:52:28;100545.59;;;17.04;69.43
48517;BME280;34310;51.904;4.256;2022-10-15T08:55:02;100553.50;;;17.06;69.79
48517;BME280;34310;51.904;4.256;2022-10-15T08:57:37;100552.03;;;17.13;69.54
48517;BME280;34310;51.904;4.256;2022-10-15T09:00:23;100552.31;;;17.20;69.32
48517;BME280;34310;51.904;4.256;2022-10-15T09:06:14;100546.63;;;17.30;69.50
48517;BME280;34310;51.904;4.256;2022-10-15T09:14:06;100533.06;;;17.39;69.11
48517;BME280;34310;51.904;4.256;2022-10-15T09:16:38;100541.66;;;17.37;69.45
48517;BME280;34310;51.904;4.256;2022-10-15T09:19:20;100537.19;;;17.34;69.49
48517;BME280;34310;51.904;4.256;2022-10-15T09:21:49;100544.13;;;17.33;69.54
48517;BME280;34310;51.904;4.256;2022-10-15T09:24:21;100532.72;;;17.31;69.59
48517;BME280;34310;51.904;4.256;2022-10-15T09:30:26;100532.78;;;17.33;69.41
48517;BME280;34310;51.904;4.256;2022-10-15T09:35:52;100531.91;;;17.32;69.55
48517;BME280;34310;51.904;4.256;2022-10-15T09:38:42;100521.47;;;17.32;69.61
48517;BME280;34310;51.904;4.256;2022-10-15T09:43:58;100526.69;;;17.32;69.71
48517;BME280;34310;51.904;4.256;2022-10-15T09:46:28;100518.03;;;17.33;69.64
48517;BME280;34310;51.904;4.256;2022-10-15T09:49:07;100512.81;;;17.33;69.58
48517;BME280;34310;51.904;4.256;2022-10-15T09:52:06;100511.03;;;17.32;69.76
48517;BME280;34310;51.904;4.256;2022-10-15T09:57:09;100513.69;;;17.34;69.97
48517;BME280;34310;51.904;4.256;2022-10-15T09:59:37;100518.03;;;17.33;70.03
48517;BME280;34310;51.904;4.256;2022-10-15T10:02:18;100518.91;;;17.34;69.77
48517;BME280;34310;51.904;4.256;2022-10-15T10:04:46;100521.53;;;17.34;69.95
48517;BME280;34310;51.904;4.256;2022-10-15T10:07:37;100510.13;;;17.32;69.98
48517;BME280;34310;51.904;4.256;2022-10-15T10:12:49;100526.00;;;17.37;69.71
48517;BME280;34310;51.904;4.256;2022-10-15T10:15:38;100519.06;;;17.37;69.96
48517;BME280;34310;51.904;4.256;2022-10-15T10:18:24;100511.22;;;17.37;70.00
48517;BME280;34310;51.904;4.256;2022-10-15T10:23:23;100518.19;;;17.37;69.92
48517;BME280;34310;51.904;4.256;2022-10-15T10:25:50;100518.22;;;17.38;69.83
48517;BME280;34310;51.904;4.256;2022-10-15T10:31:12;100511.28;;;17.39;69.93
48517;BME280;34310;51.904;4.256;2022-10-15T10:36:39;100516.63;;;17.42;69.90
48517;BME280;34310;51.904;4.256;2022-10-15T10:42:00;100517.47;;;17.41;70.10
48517;BME280;34310;51.904;4.256;2022-10-15T10:44:36;100521.84;;;17.42;70.17
48517;BME280;34310;51.904;4.256;2022-10-15T10:47:17;100519.34;;;17.45;69.86
48517;BME280;34310;51.904;4.256;2022-10-15T10:49:56;100510.63;;;17.44;70.16
48517;BME280;34310;51.904;4.256;2022-10-15T10:52:35;100510.63;;;17.44;69.91
48517;BME280;34310;51.904;4.256;2022-10-15T10:57:56;100510.69;;;17.46;70.05
48517;BME280;34310;51.904;4.256;2022-10-15T11:00:41;100511.50;;;17.45;69.94
48517;BME280;34310;51.904;4.256;2022-10-15T11:05:42;100509.75;;;17.44;69.72
48517;BME280;34310;51.904;4.256;2022-10-15T11:10:56;100495.91;;;17.46;69.99
48517;BME280;34310;51.904;4.256;2022-10-15T11:13:39;100502.84;;;17.46;69.85
48517;BME280;34310;51.904;4.256;2022-10-15T11:19:13;100503.78;;;17.48;69.58
48517;BME280;34310;51.904;4.256;2022-10-15T11:22:41;100515.97;;;17.47;69.68
48517;BME280;34310;51.904;4.256;2022-10-15T11:36:34;100510.78;;;17.49;69.65
48517;BME280;34310;51.904;4.256;2022-10-15T11:45:02;100521.22;;;17.49;69.52
48517;BME280;34310;51.904;4.256;2022-10-15T11:50:34;100516.00;;;17.49;69.52
48517;BME280;34310;51.904;4.256;2022-10-15T11:56:15;100525.69;;;17.51;69.47
48517;BME280;34310;51.904;4.256;2022-10-15T11:58:46;100526.50;;;17.50;69.54
48517;BME280;34310;51.904;4.256;2022-10-15T12:04:13;100524.78;;;17.51;69.67
48517;BME280;34310;51.904;4.256;2022-10-15T12:06:48;100531.78;;;17.52;69.67
48517;BME280;34310;51.904;4.256;2022-10-15T12:09:25;100530.06;;;17.52;69.65
48517;BME280;34310;51.904;4.256;2022-10-15T12:20:34;100535.34;;;17.76;69.21
48517;BME280;34310;51.904;4.256;2022-10-15T12:23:03;100536.09;;;17.72;69.39
48517;BME280;34310;51.904;4.256;2022-10-15T12:28:12;100542.03;;;17.68;69.42
48517;BME280;34310;51.904;4.256;2022-10-15T12:30:41;100534.25;;;17.70;69.49
48517;BME280;34310;51.904;4.256;2022-10-15T12:33:36;100542.13;;;17.71;69.49
48517;BME280;34310;51.904;4.256;2022-10-15T12:36:27;100538.63;;;17.71;69.50
48517;BME280;34310;51.904;4.256;2022-10-15T12:39:17;100539.53;;;17.71;69.34
48517;BME280;34310;51.904;4.256;2022-10-15T12:44:50;100541.84;;;17.87;69.19
48517;BME280;34310;51.904;4.256;2022-10-15T12:47:54;100554.03;;;18.11;68.70
48517;BME280;34310;51.904;4.256;2022-10-15T12:50:24;100556.59;;;18.09;68.40
48517;BME280;34310;51.904;4.256;2022-10-15T12:57:56;100575.22;;;18.68;66.75
48517;BME280;34310;51.904;4.256;2022-10-15T13:02:52;100589.75;;;18.60;66.55
48517;BME280;34310;51.904;4.256;2022-10-15T13:05:28;100582.84;;;18.62;66.76
48517;BME280;34310;51.904;4.256;2022-10-15T13:07:59;100594.31;;;18.65;66.22
48517;BME280;34310;51.904;4.256;2022-10-15T13:10:32;100599.31;;;18.59;66.73
48517;BME280;34310;51.904;4.256;2022-10-15T13:13:05;100608.28;;;18.66;66.80
48517;BME280;34310;51.904;4.256;2022-10-15T13:15:34;100601.97;;;18.61;66.77
48517;BME280;34310;51.904;4.256;2022-10-15T13:18:12;100606.22;;;18.57;67.07
48517;BME280;34310;51.904;4.256;2022-10-15T13:20:41;100609.13;;;18.65;67.12
48517;BME280;34310;51.904;4.256;2022-10-15T13:23:18;100608.00;;;18.58;66.89
48517;BME280;34310;51.904;4.256;2022-10-15T13:26:24;100606.94;;;18.53;67.31
48517;BME280;34310;51.904;4.256;2022-10-15T13:28:58;100611.25;;;18.51;67.25
48517;BME280;34310;51.904;4.256;2022-10-15T13:31:28;100607.94;;;18.56;67.25
48517;BME280;34310;51.904;4.256;2022-10-15T13:36:53;100615.78;;;18.56;67.30
48517;BME280;34310;51.904;4.256;2022-10-15T13:39:36;100614.66;;;18.74;66.88
48517;BME280;34310;51.904;4.256;2022-10-15T13:44:39;100615.94;;;18.85;66.36
48517;BME280;34310;51.904;4.256;2022-10-15T13:47:29;100613.66;;;18.96;66.29
48517;BME280;34310;51.904;4.256;2022-10-15T13:50:31;100606.50;;;18.90;66.46
48517;BME280;34310;51.904;4.256;2022-10-15T13:53:06;100610.00;;;18.91;66.67
48517;BME280;34310;51.904;4.256;2022-10-15T13:55:43;100613.56;;;18.93;66.32
48517;BME280;34310;51.904;4.256;2022-10-15T13:58:18;100614.50;;;18.95;66.29
48517;BME280;34310;51.904;4.256;2022-10-15T14:03:29;100629.47;;;18.99;66.10
48517;BME280;34310;51.904;4.256;2022-10-15T14:06:07;100626.34;;;19.09;66.09
48517;BME280;34310;51.904;4.256;2022-10-15T14:08:35;100630.47;;;19.29;65.49
48517;BME280;34310;51.904;4.256;2022-10-15T14:11:03;100620.22;;;19.37;65.32
48517;BME280;34310;51.904;4.256;2022-10-15T14:13:30;100630.19;;;19.47;64.83
48517;BME280;34310;51.904;4.256;2022-10-15T14:16:11;100627.47;;;19.44;64.80
48517;BME280;34310;51.904;4.256;2022-10-15T14:18:46;100638.47;;;19.34;65.16
48517;BME280;34310;51.904;4.256;2022-10-15T14:21:18;100632.50;;;19.38;65.32
48517;BME280;34310;51.904;4.256;2022-10-15T14:23:47;100627.94;;;19.32;65.38
48517;BME280;34310;51.904;4.256;2022-10-15T14:26:23;100631.13;;;19.22;65.68
48517;BME280;34310;51.904;4.256;2022-10-15T14:28:50;100637.84;;;19.14;66.02
48517;BME280;34310;51.904;4.256;2022-10-15T14:31:39;100640.84;;;19.26;65.69
48517;BME280;34310;51.904;4.256;2022-10-15T14:36:56;100646.81;;;19.49;64.85
48517;BME280;34310;51.904;4.256;2022-10-15T14:39:34;100644.19;;;19.49;65.15
48517;BME280;34310;51.904;4.256;2022-10-15T14:42:06;100636.16;;;19.43;64.97
48517;BME280;34310;51.904;4.256;2022-10-15T14:44:51;100643.88;;;19.38;65.17
48517;BME280;34310;51.904;4.256;2022-10-15T14:47:25;100654.50;;;19.43;64.90
48517;BME280;34310;51.904;4.256;2022-10-15T14:49:56;100651.25;;;19.52;64.96
48517;BME280;34310;51.904;4.256;2022-10-15T14:52:26;100652.41;;;19.60;64.58
48517;BME280;34310;51.904;4.256;2022-10-15T14:55:15;100659.47;;;19.62;64.59
48517;BME280;34310;51.904;4.256;2022-10-15T14:57:46;100654.84;;;19.54;64.74
48517;BME280;34310;51.904;4.256;2022-10-15T15:00:28;100661.56;;;19.45;64.78
48517;BME280;34310;51.904;4.256;2022-10-15T15:02:58;100660.81;;;19.49;64.92
48517;BME280;34310;51.904;4.256;2022-10-15T15:05:28;100660.09;;;19.54;64.90
48517;BME280;34310;51.904;4.256;2022-10-15T15:07:56;100655.84;;;19.57;64.66
48517;BME280;34310;51.904;4.256;2022-10-15T15:10:27;100655.66;;;19.53;64.71
48517;BME280;34310;51.904;4.256;2022-10-15T15:12:55;100661.69;;;19.50;64.64
48517;BME280;34310;51.904;4.256;2022-10-15T15:15:24;100665.09;;;19.47;64.89
48517;BME280;34310;51.904;4.256;2022-10-15T15:17:53;100665.56;;;19.36;65.17
48517;BME280;34310;51.904;4.256;2022-10-15T15:20:21;100666.19;;;19.27;65.49
48517;BME280;34310;51.904;4.256;2022-10-15T15:22:52;100667.72;;;19.21;65.65
48517;BME280;34310;51.904;4.256;2022-10-15T15:27:56;100660.78;;;19.23;65.91